Time;durP1;ratioP1;P1;durP2;ratioP2;P2;SDS_P1;SDS_P2;PMS_P1;PMS_P2;Temp;Humidity;BMP_temperature;BMP_pressure;BME280_temperature;BME280_humidity;BME280_pressure;Samples;Min_cycle;Max_cycle;Signal;HPM_P1;HPM_P2
2023/12/01 00:01:14;;;;;;;0.20;0.20;;;;;;;2.40;99.11;96692.56;5025387;28;20049;-58
2023/12/01 00:03:41;;;;;;;0.20;0.20;;;;;;;2.63;99.59;96734.13;5026751;28;20138;-58
2023/12/01 00:06:08;;;;;;;0.30;0.30;;;;;;;3.02;98.63;96785.78;5026722;28;20054;-59
2023/12/01 00:08:35;;;;;;;0.20;0.20;;;;;;;2.92;99.13;96776.00;5025187;28;20056;-61
2023/12/01 00:11:01;;;;;;;0.20;0.20;;;;;;;2.97;99.78;96773.09;5026685;28;20124;-58
2023/12/01 00:13:28;;;;;;;0.20;0.20;;;;;;;3.00;98.74;96790.81;5026527;28;20061;-59
2023/12/01 00:15:55;;;;;;;0.20;0.20;;;;;;;2.98;99.13;96804.00;5026312;28;20508;-58
2023/12/01 00:18:22;;;;;;;0.20;0.20;;;;;;;2.88;99.23;96779.72;5026890;28;20063;-58
2023/12/01 00:20:48;;;;;;;0.20;0.20;;;;;;;2.96;98.65;96803.50;5026130;28;20528;-58
2023/12/01 00:23:15;;;;;;;0.30;0.30;;;;;;;2.93;99.67;96793.22;5026633;28;20519;-58
2023/12/01 00:25:42;;;;;;;0.20;0.20;;;;;;;2.56;100.00;96750.25;5041457;28;20053;-59
2023/12/01 00:28:09;;;;;;;0.20;0.20;;;;;;;2.86;100.00;96798.41;5041149;28;20045;-57
2023/12/01 00:30:36;;;;;;;0.30;0.30;;;;;;;2.78;100.00;96759.00;5026241;28;20103;-58
2023/12/01 00:33:03;;;;;;;0.20;0.20;;;;;;;2.93;100.00;96783.09;5024926;28;20535;-59
2023/12/01 00:35:30;;;;;;;0.20;0.20;;;;;;;3.00;100.00;96782.59;5026143;28;20057;-58
2023/12/01 00:37:57;;;;;;;0.20;0.20;;;;;;;3.02;99.54;96774.84;5024610;28;20051;-59
2023/12/01 00:40:24;;;;;;;0.30;0.30;;;;;;;2.38;99.96;96677.63;5025743;28;20599;-59
2023/12/01 00:42:51;;;;;;;0.20;0.20;;;;;;;3.07;99.47;96782.88;5040933;28;20064;-60
2023/12/01 00:45:17;;;;;;;0.22;0.22;;;;;;;2.28;99.38;96650.66;5025514;28;20077;-59
2023/12/01 00:47:44;;;;;;;0.30;0.30;;;;;;;3.15;99.08;96784.75;5025937;28;20130;-60
2023/12/01 00:50:11;;;;;;;0.20;0.20;;;;;;;3.13;99.01;96781.53;5025682;28;20319;-59
2023/12/01 00:52:38;;;;;;;0.25;0.25;;;;;;;3.07;100.00;96782.88;5025841;28;20050;-59
2023/12/01 00:55:05;;;;;;;0.25;0.25;;;;;;;3.16;100.00;96780.91;5025587;28;20063;-61
2023/12/01 00:57:32;;;;;;;0.20;0.20;;;;;;;2.68;100.00;96715.63;5040597;28;20524;-59
2023/12/01 00:59:59;;;;;;;0.20;0.20;;;;;;;3.09;100.00;96786.09;5024281;28;20492;-61
2023/12/01 01:02:26;;;;;;;0.20;0.20;;;;;;;3.12;100.00;96779.94;5025500;28;20061;-58
2023/12/01 01:04:54;;;;;;;0.20;0.20;;;;;;;3.18;99.77;96794.28;5024059;28;20119;-59
2023/12/01 01:07:21;;;;;;;0.20;0.20;;;;;;;3.15;99.35;96795.72;5025177;28;20057;-58
2023/12/01 01:09:47;;;;;;;0.20;0.20;;;;;;;3.06;99.16;96803.16;5024059;28;20490;-58
2023/12/01 01:12:14;;;;;;;0.20;0.20;;;;;;;2.59;98.73;96719.53;5025245;28;20089;-59
2023/12/01 01:14:41;;;;;;;0.20;0.20;;;;;;;2.98;100.00;96790.31;5025740;28;20482;-59
2023/12/01 01:17:08;;;;;;;0.30;0.30;;;;;;;2.61;100.00;96728.19;5040294;28;20081;-59
2023/12/01 01:19:35;;;;;;;0.22;0.22;;;;;;;2.98;99.30;96773.91;5024735;28;20045;-59
2023/12/01 01:22:01;;;;;;;0.28;0.28;;;;;;;2.77;100.00;96753.88;5025460;28;20060;-59
2023/12/01 01:24:28;;;;;;;0.20;0.20;;;;;;;2.88;100.00;96761.38;5024946;28;20061;-58
2023/12/01 01:26:55;;;;;;;0.30;0.30;;;;;;;2.58;100.00;96674.16;5025546;28;20559;-59
2023/12/01 01:29:22;;;;;;;0.20;0.20;;;;;;;3.10;100.00;96754.84;5025057;28;20427;-59
2023/12/01 01:31:49;;;;;;;0.30;0.30;;;;;;;3.16;100.00;96759.03;5025138;28;20053;-58
2023/12/01 01:34:15;;;;;;;0.30;0.30;;;;;;;3.21;100.00;96760.78;5039839;28;20119;-59
2023/12/01 01:36:44;;;;;;;0.20;0.20;;;;;;;3.20;100.00;96749.00;5023540;28;20071;-60
2023/12/01 01:39:11;;;;;;;0.20;0.20;;;;;;;3.01;100.00;96726.75;5024591;28;20583;-59
2023/12/01 01:41:38;;;;;;;0.25;0.25;;;;;;;3.13;100.00;96742.47;5024789;28;20068;-59
2023/12/01 01:44:05;;;;;;;0.20;0.20;;;;;;;3.31;100.00;96750.22;5024738;28;20053;-59
2023/12/01 01:46:32;;;;;;;0.20;0.20;;;;;;;3.35;99.83;96750.38;5035161;28;20057;-60
2023/12/01 01:48:59;;;;;;;0.20;0.20;;;;;;;3.33;99.63;96734.28;5039882;28;20084;-61
2023/12/01 01:51:26;;;;;;;0.30;0.30;;;;;;;3.05;99.48;96703.06;5023281;28;20060;-59
2023/12/01 01:53:54;;;;;;;0.22;0.22;;;;;;;3.20;100.00;96753.69;5023578;28;20061;-59
2023/12/01 01:56:21;;;;;;;0.22;0.22;;;;;;;3.13;100.00;96752.25;5023125;28;20084;-60
2023/12/01 01:58:50;;;;;;;0.20;0.20;;;;;;;3.30;100.00;96748.66;5024480;28;20050;-59
2023/12/01 02:01:18;;;;;;;0.20;0.20;;;;;;;3.38;99.91;96734.09;5024576;28;20534;-59
2023/12/01 02:03:45;;;;;;;0.30;0.30;;;;;;;3.26;100.00;96742.22;5023205;28;20057;-59
2023/12/01 02:06:12;;;;;;;0.30;0.30;;;;;;;3.21;100.00;96745.13;5024504;28;20061;-58
2023/12/01 02:08:40;;;;;;;0.20;0.20;;;;;;;3.25;99.90;96740.63;5024867;28;20056;-61
2023/12/01 02:11:07;;;;;;;0.25;0.25;;;;;;;2.88;99.88;96678.53;5023190;28;20061;-60
2023/12/01 02:13:34;;;;;;;0.20;0.20;;;;;;;3.24;100.00;96722.56;5039380;28;20060;-59
2023/12/01 02:16:01;;;;;;;0.20;0.20;;;;;;;3.38;99.69;96731.38;5022868;28;20057;-60
2023/12/01 02:18:31;;;;;;;0.20;0.20;;;;;;;2.76;100.00;96711.25;5024452;28;20057;-58
2023/12/01 02:20:58;;;;;;;0.20;0.20;;;;;;;2.95;100.00;96736.25;5024243;28;20065;-58
2023/12/01 02:23:26;;;;;;;0.25;0.25;;;;;;;3.09;100.00;96725.91;5039311;28;20159;-58
2023/12/01 02:25:53;;;;;;;0.30;0.30;;;;;;;2.66;100.00;96684.25;5024205;28;20058;-60
2023/12/01 02:28:20;;;;;;;0.30;0.30;;;;;;;2.63;100.00;96676.72;5024327;28;20050;-59
2023/12/01 02:30:56;;;;;;;0.20;0.20;;;;;;;3.03;100.00;96743.63;5023551;28;20443;-58
2023/12/01 02:33:23;;;;;;;0.20;0.20;;;;;;;3.20;100.00;96732.59;5028588;28;20049;-60
2023/12/01 02:35:52;;;;;;;0.30;0.30;;;;;;;3.28;100.00;96734.47;5028256;28;20143;-58
2023/12/01 02:38:20;;;;;;;0.20;0.20;;;;;;;3.32;100.00;96729.94;5028484;28;20132;-58
2023/12/01 02:40:50;;;;;;;0.30;0.30;;;;;;;3.26;100.00;96714.84;5027738;28;20508;-59
2023/12/01 02:43:19;;;;;;;0.20;0.20;;;;;;;3.34;100.00;96711.25;5026860;28;20065;-58
2023/12/01 02:45:47;;;;;;;0.20;0.20;;;;;;;3.23;100.00;96710.03;5027740;28;20432;-59
2023/12/01 02:48:16;;;;;;;0.20;0.20;;;;;;;2.79;100.00;96656.72;5028205;28;20049;-59
2023/12/01 02:50:45;;;;;;;0.20;0.20;;;;;;;3.20;100.00;96705.22;5043178;28;20057;-59
2023/12/01 02:53:12;;;;;;;0.20;0.20;;;;;;;3.33;100.00;96720.59;5043271;28;20053;-58
2023/12/01 02:55:39;;;;;;;0.20;0.20;;;;;;;3.08;100.00;96664.13;5027777;28;20057;-59
2023/12/01 02:58:06;;;;;;;0.20;0.20;;;;;;;3.25;100.00;96702.31;5027982;28;20063;-59
2023/12/01 03:00:32;;;;;;;0.20;0.20;;;;;;;3.24;100.00;96703.41;5027475;28;20099;-60
2023/12/01 03:02:59;;;;;;;0.30;0.30;;;;;;;2.83;100.00;96615.81;5027928;28;20064;-59
2023/12/01 03:05:26;;;;;;;0.20;0.20;;;;;;;3.06;100.00;96655.44;5027738;28;20100;-58
2023/12/01 03:07:53;;;;;;;0.30;0.30;;;;;;;2.97;100.00;96632.81;5027903;28;20049;-58
2023/12/01 03:10:19;;;;;;;0.20;0.20;;;;;;;2.60;99.88;96568.03;5042559;28;20057;-60
2023/12/01 03:12:46;;;;;;;0.30;0.30;;;;;;;3.36;99.88;96692.56;5042556;28;20053;-59
2023/12/01 03:15:19;;;;;;;0.20;0.20;;;;;;;3.08;99.79;96664.13;5027362;28;20049;-59
2023/12/01 03:17:47;;;;;;;;;;;;;;;3.31;99.87;96692.75;5028638;28;20133;-59
2023/12/01 03:20:15;;;;;;;0.28;0.28;;;;;;;3.13;100.00;96691.25;5027541;28;20022;-61
2023/12/01 03:22:44;;;;;;;0.30;0.30;;;;;;;3.22;100.00;96685.75;5027725;28;20049;-59
2023/12/01 03:25:11;;;;;;;0.20;0.20;;;;;;;2.82;99.03;96622.44;5027313;28;20061;-59
2023/12/01 03:27:46;;;;;;;0.30;0.30;;;;;;;3.14;100.00;96695.63;5026118;28;20053;-58
2023/12/01 03:30:17;;;;;;;0.20;0.20;;;;;;;3.05;100.00;96703.84;5027529;28;20124;-58
2023/12/01 03:32:46;;;;;;;0.20;0.20;;;;;;;3.16;100.00;96687.88;5025652;28;20053;-59
2023/12/01 03:35:15;;;;;;;0.20;0.20;;;;;;;2.64;100.00;96621.72;5026728;28;20535;-59
2023/12/01 03:37:43;;;;;;;0.20;0.20;;;;;;;3.15;100.00;96693.69;5042327;28;20049;-58
2023/12/01 03:40:14;;;;;;;0.20;0.20;;;;;;;2.82;100.00;96663.44;5025616;28;20081;-59
2023/12/01 03:42:42;;;;;;;0.22;0.22;;;;;;;3.10;100.00;96695.47;5042472;28;20143;-59
2023/12/01 03:45:12;;;;;;;0.30;0.30;;;;;;;3.07;99.05;96700.78;5027058;28;20080;-59
2023/12/01 03:47:41;;;;;;;0.20;0.20;;;;;;;3.07;99.57;96706.25;5042552;28;20064;-59
2023/12/01 03:50:11;;;;;;;0.20;0.20;;;;;;;2.83;99.80;96686.91;5041835;28;20080;-60
2023/12/01 03:52:43;;;;;;;0.20;0.20;;;;;;;3.09;100.00;96693.06;5027288;28;20057;-59
2023/12/01 03:55:10;;;;;;;0.28;0.28;;;;;;;3.09;100.00;96693.06;5026601;28;20075;-59
2023/12/01 03:57:39;;;;;;;0.30;0.30;;;;;;;3.15;100.00;96686.25;5027168;28;20857;-59
2023/12/01 04:00:13;;;;;;;0.20;0.20;;;;;;;3.01;100.00;96658.34;5027198;28;20504;-59
2023/12/01 04:02:45;;;;;;;0.20;0.20;;;;;;;3.27;99.38;96680.06;5027279;28;20436;-60
2023/12/01 04:05:17;;;;;;;0.20;0.20;;;;;;;2.85;99.36;96627.22;5027036;28;20053;-60
2023/12/01 04:07:51;;;;;;;0.20;0.20;;;;;;;3.22;99.78;96697.50;5027073;28;20049;-59
2023/12/01 04:10:21;;;;;;;0.20;0.20;;;;;;;2.73;100.00;96600.63;5025551;28;20049;-60
2023/12/01 04:12:48;;;;;;;0.20;0.20;;;;;;;3.21;100.00;96684.94;5026870;28;20050;-60
2023/12/01 04:15:19;;;;;;;0.28;0.28;;;;;;;3.29;100.00;96686.81;5027038;28;20064;-61
2023/12/01 04:17:48;;;;;;;0.30;0.30;;;;;;;0.97;98.57;96319.63;5041850;28;20049;-60
2023/12/01 04:20:21;;;;;;;0.20;0.20;;;;;;;3.24;98.86;96683.47;5024904;28;20053;-59
2023/12/01 04:22:49;;;;;;;;;;;;;;;3.24;99.58;96675.28;5026859;28;20520;-59
2023/12/01 04:25:16;;;;;;;0.22;0.22;;;;;;;3.12;100.00;96689.66;5026358;28;20299;-59
2023/12/01 04:27:47;;;;;;;0.20;0.20;;;;;;;2.67;100.00;96631.22;5024736;28;20053;-59
2023/12/01 04:30:15;;;;;;;0.30;0.30;;;;;;;3.06;100.00;96666.38;5027660;28;20495;-59
2023/12/01 04:32:46;;;;;;;0.22;0.22;;;;;;;3.17;100.00;96675.78;5041289;28;20316;-59
2023/12/01 04:35:13;;;;;;;0.20;0.20;;;;;;;3.34;100.00;96678.41;5024651;28;20535;-59
2023/12/01 04:37:41;;;;;;;0.22;0.22;;;;;;;3.36;100.00;96665.19;5024792;28;20046;-60
2023/12/01 04:40:14;;;;;;;0.22;0.22;;;;;;;3.39;100.00;96680.94;5024485;28;20512;-58
2023/12/01 04:42:46;;;;;;;0.20;0.20;;;;;;;3.23;100.00;96677.19;5026284;28;20060;-59
2023/12/01 04:45:17;;;;;;;0.20;0.20;;;;;;;2.88;100.00;96693.00;5026149;28;20049;-59
2023/12/01 04:47:46;;;;;;;0.20;0.20;;;;;;;2.73;100.00;96690.03;5025993;28;20531;-59
2023/12/01 04:50:14;;;;;;;0.20;0.20;;;;;;;2.89;100.00;96655.53;5040863;28;20504;-59
2023/12/01 04:52:43;;;;;;;0.30;0.30;;;;;;;3.16;100.00;96682.41;5025990;28;20128;-59
2023/12/01 04:55:14;;;;;;;0.20;0.20;;;;;;;3.28;100.00;96679.75;5025281;28;20512;-59
2023/12/01 04:57:42;;;;;;;0.20;0.20;;;;;;;2.96;100.00;96622.97;5025743;28;20140;-60
2023/12/01 05:00:21;;;;;;;0.30;0.30;;;;;;;3.35;100.00;96690.16;5025789;28;20152;-60
2023/12/01 05:03:05;;;;;;;0.20;0.20;;;;;;;2.87;100.00;96603.09;5025603;28;20183;-59
2023/12/01 05:05:35;;;;;;;0.20;0.20;;;;;;;3.01;100.00;96620.06;5025790;28;20045;-61
2023/12/01 05:08:07;;;;;;;0.20;0.20;;;;;;;3.49;100.00;96675.09;5025604;28;20056;-59
2023/12/01 05:10:36;;;;;;;0.28;0.28;;;;;;;3.51;100.00;96682.97;5023831;28;20072;-60
2023/12/01 05:13:07;;;;;;;0.20;0.20;;;;;;;3.57;99.04;96678.88;5025264;28;20065;-59
2023/12/01 05:15:36;;;;;;;0.20;0.20;;;;;;;3.66;98.18;96679.63;5025045;28;20501;-59
2023/12/01 05:18:05;;;;;;;0.30;0.30;;;;;;;3.62;98.57;96678.69;5025321;28;20091;-62
2023/12/01 05:20:32;;;;;;;0.30;0.30;;;;;;;3.61;98.47;96668.84;5025415;28;20132;-59
2023/12/01 05:23:01;;;;;;;0.22;0.22;;;;;;;3.48;99.01;96657.03;5025276;28;20413;-60
2023/12/01 05:25:32;;;;;;;0.28;0.28;;;;;;;3.14;98.34;96608.06;5025114;28;20061;-61
2023/12/01 05:28:05;;;;;;;0.20;0.20;;;;;;;3.60;98.01;96672.75;5025400;28;20120;-61
2023/12/01 05:30:33;;;;;;;0.30;0.30;;;;;;;3.62;97.18;96668.53;5025289;28;20053;-60
2023/12/01 05:33:01;;;;;;;0.20;0.20;;;;;;;1.41;97.58;96318.28;5025125;28;20060;-60
2023/12/01 05:35:29;;;;;;;0.20;0.20;;;;;;;3.41;97.04;96655.97;5039876;28;20140;-59
2023/12/01 05:37:57;;;;;;;0.20;0.20;;;;;;;3.67;96.27;96676.53;5025220;28;20049;-59
2023/12/01 05:40:25;;;;;;;0.20;0.20;;;;;;;3.59;96.93;96680.16;5024718;28;20061;-59
2023/12/01 05:42:54;;;;;;;0.20;0.20;;;;;;;3.55;97.51;96668.28;5025257;28;20099;-58
2023/12/01 05:45:26;;;;;;;0.20;0.20;;;;;;;3.51;98.09;96683.75;5039143;28;20053;-59
2023/12/01 05:47:54;;;;;;;0.30;0.30;;;;;;;3.31;98.49;96679.06;5023381;28;20057;-60
2023/12/01 05:50:25;;;;;;;0.20;0.20;;;;;;;3.15;99.00;96609.66;5022766;28;20045;-59
2023/12/01 05:52:53;;;;;;;0.30;0.30;;;;;;;3.66;97.83;96679.63;5023714;28;20183;-58
2023/12/01 05:55:25;;;;;;;0.30;0.30;;;;;;;3.64;98.31;96688.16;5023170;28;20630;-59
2023/12/01 05:57:57;;;;;;;0.30;0.30;;;;;;;3.71;98.55;96688.44;5023567;28;20555;-58
2023/12/01 06:00:29;;;;;;;0.30;0.30;;;;;;;3.73;98.65;96675.19;5039288;28;20051;-59
2023/12/01 06:02:59;;;;;;;0.30;0.30;;;;;;;3.88;98.10;96671.84;5024985;28;20045;-60
2023/12/01 06:05:27;;;;;;;0.30;0.30;;;;;;;3.69;98.43;96652.38;5024259;28;20575;-58
2023/12/01 06:07:59;;;;;;;0.20;0.20;;;;;;;3.06;98.46;96543.25;5024608;28;20595;-59
2023/12/01 06:10:28;;;;;;;0.30;0.30;;;;;;;3.96;97.83;96676.44;5023161;28;20119;-59
2023/12/01 06:12:56;;;;;;;0.30;0.30;;;;;;;4.07;97.47;96691.34;5024339;28;20447;-59
2023/12/01 06:15:24;;;;;;;0.30;0.30;;;;;;;4.10;97.63;96673.41;5023178;28;20050;-58
2023/12/01 06:17:51;;;;;;;0.25;0.25;;;;;;;4.18;97.48;96708.16;5024866;28;20054;-58
2023/12/01 06:20:21;;;;;;;0.30;0.30;;;;;;;4.21;97.39;96680.88;5024649;28;20406;-58
2023/12/01 06:22:51;;;;;;;0.20;0.20;;;;;;;4.31;97.27;96676.91;5024605;28;20064;-59
2023/12/01 06:25:19;;;;;;;0.30;0.30;;;;;;;4.29;97.65;96670.94;5024253;28;20428;-58
2023/12/01 06:27:47;;;;;;;0.30;0.30;;;;;;;4.39;95.86;96676.78;5024600;28;20524;-57
2023/12/01 06:30:15;;;;;;;0.30;0.30;;;;;;;4.39;96.35;96682.28;5024104;28;20053;-59
2023/12/01 06:32:43;;;;;;;0.30;0.30;;;;;;;4.01;97.70;96681.72;5024485;28;20494;-59
2023/12/01 06:35:15;;;;;;;0.30;0.30;;;;;;;4.25;99.07;96684.53;5039258;28;20053;-59
2023/12/01 06:37:43;;;;;;;0.30;0.30;;;;;;;3.93;98.15;96657.94;5022852;28;20601;-58
2023/12/01 06:40:17;;;;;;;0.30;0.30;;;;;;;4.20;98.35;96690.25;5024420;28;20060;-60
2023/12/01 06:42:49;;;;;;;0.30;0.30;;;;;;;4.50;98.01;96683.44;5024702;28;20045;-60
2023/12/01 06:45:21;;;;;;;0.30;0.30;;;;;;;4.57;97.10;96688.38;5024489;28;20292;-60
2023/12/01 06:47:50;;;;;;;0.30;0.30;;;;;;;4.76;96.51;96679.59;5024049;28;20069;-58
2023/12/01 06:50:18;;;;;;;0.30;0.30;;;;;;;4.97;96.30;96724.19;5023755;28;20049;-60
2023/12/01 06:52:48;;;;;;;0.30;0.30;;;;;;;5.08;96.12;96693.22;5022782;28;20050;-66
2023/12/01 06:55:16;;;;;;;0.30;0.30;;;;;;;4.80;96.51;96609.19;5023580;28;20053;-62
2023/12/01 06:57:45;;;;;;;0.30;0.30;;;;;;;5.50;96.29;96677.28;5023275;28;20057;-71
2023/12/01 07:00:29;;;;;;;0.32;0.32;;;;;;;5.53;96.43;96635.38;5038628;28;20042;-62
2023/12/01 07:03:09;;;;;;;0.30;0.30;;;;;;;5.78;93.94;96673.44;5023170;28;20049;-67
2023/12/01 07:05:39;;;;;;;0.30;0.30;;;;;;;5.54;92.83;96623.22;5023391;28;20092;-66
2023/12/01 07:08:11;;;;;;;0.30;0.30;;;;;;;3.13;91.52;96248.03;5037696;28;20534;-72
2023/12/01 07:10:39;;;;;;;0.40;0.40;;;;;;;6.31;92.34;96680.44;5022923;28;20061;-63
2023/12/01 07:13:16;;;;;;;0.40;0.40;;;;;;;5.78;90.84;96601.16;4990541;28;10001692;-67
2023/12/01 07:15:42;;;;;;;0.40;0.40;;;;;;;6.42;88.38;96684.25;5022663;28;20290;-64
2023/12/01 07:18:10;;;;;;;0.40;0.40;;;;;;;6.39;88.02;96682.22;5025783;28;20512;-65
2023/12/01 07:20:37;;;;;;;0.30;0.30;;;;;;;6.48;86.71;96693.06;5026956;28;20061;-67
2023/12/01 07:23:05;;;;;;;0.40;0.40;;;;;;;6.36;86.68;96666.44;5042519;28;20496;-66
2023/12/01 07:25:34;;;;;;;0.30;0.30;;;;;;;6.62;87.04;96686.00;5040721;28;20079;-62
2023/12/01 07:28:05;;;;;;;0.30;0.30;;;;;;;6.73;87.49;96675.25;5024094;28;20111;-61
2023/12/01 07:30:33;;;;;;;0.40;0.40;;;;;;;5.88;86.82;96535.53;5028212;28;20053;-62
2023/12/01 07:33:04;;;;;;;0.40;0.40;;;;;;;6.96;85.44;96677.03;5040518;28;20061;-62
2023/12/01 07:35:31;;;;;;;0.40;0.40;;;;;;;6.72;85.18;96646.16;5031774;28;20064;-63
2023/12/01 07:37:58;;;;;;;0.32;0.32;;;;;;;7.03;85.73;96696.50;5026593;28;20053;-63
2023/12/01 07:40:25;;;;;;;0.40;0.40;;;;;;;6.69;86.16;96636.63;5025842;28;20050;-68
2023/12/01 07:42:55;;;;;;;0.40;0.40;;;;;;;7.18;85.94;96681.91;5024059;28;20049;-62
2023/12/01 07:45:23;;;;;;;0.40;0.40;;;;;;;7.42;86.91;96695.47;5022422;28;20054;-68
2023/12/01 07:47:51;;;;;;;0.40;0.40;;;;;;;6.95;86.14;96557.06;5025840;28;20060;-67
2023/12/01 07:50:19;;;;;;;0.40;0.40;;;;;;;7.88;86.33;96687.41;5026796;28;20045;-63
2023/12/01 07:52:47;;;;;;;0.40;0.40;;;;;;;7.66;85.20;96626.34;5040493;28;20107;-65
2023/12/01 07:55:14;;;;;;;0.40;0.40;;;;;;;8.03;84.21;96656.25;5025619;28;20053;-65
2023/12/01 07:57:42;;;;;;;0.40;0.40;;;;;;;7.98;83.62;96651.00;5026092;28;20301;-61
2023/12/01 08:00:14;;;;;;;0.40;0.40;;;;;;;7.57;82.99;96614.69;5026044;28;20103;-61
2023/12/01 08:02:43;;;;;;;0.40;0.40;;;;;;;7.79;86.48;96700.63;5025451;28;20061;-63
2023/12/01 08:05:16;;;;;;;0.40;0.40;;;;;;;7.90;86.05;96652.03;5026474;28;20049;-63
2023/12/01 08:07:44;;;;;;;0.40;0.40;;;;;;;8.21;85.41;96679.44;5026078;28;20516;-63
2023/12/01 08:10:14;;;;;;;0.40;0.40;;;;;;;8.34;85.50;96697.47;5026253;28;20107;-61
2023/12/01 08:12:43;;;;;;;0.40;0.40;;;;;;;6.82;83.27;96464.75;5025786;28;20059;-61
2023/12/01 08:15:10;;;;;;;0.40;0.40;;;;;;;8.65;83.26;96694.53;5025737;28;20287;-62
2023/12/01 08:17:38;;;;;;;0.40;0.40;;;;;;;8.74;82.27;96695.13;5020595;28;20058;-62
2023/12/01 08:20:08;;;;;;;0.40;0.40;;;;;;;8.97;82.52;96684.84;5006310;28;20452;-63
2023/12/01 08:22:35;;;;;;;0.40;0.40;;;;;;;9.24;82.21;96683.75;5018132;28;20424;-68
2023/12/01 08:25:02;;;;;;;0.43;0.43;;;;;;;9.09;81.45;96627.44;5028582;28;20088;-68
2023/12/01 08:27:29;;;;;;;0.40;0.40;;;;;;;9.80;81.52;96692.88;5024325;28;20056;-68
2023/12/01 08:29:56;;;;;;;0.50;0.50;;;;;;;9.90;78.05;96649.94;5024048;28;20064;-67
2023/12/01 08:32:22;;;;;;;0.40;0.40;;;;;;;10.10;77.16;96671.59;5040385;28;20049;-69
2023/12/01 08:34:50;;;;;;;0.40;0.40;;;;;;;9.58;77.23;96594.19;5026811;28;20053;-68
2023/12/01 08:37:17;;;;;;;0.40;0.40;;;;;;;9.63;77.33;96640.09;5028096;28;20138;-67
2023/12/01 08:39:49;;;;;;;0.40;0.40;;;;;;;8.98;82.07;96631.19;5024990;28;20053;-70
2023/12/01 08:42:18;;;;;;;0.40;0.40;;;;;;;9.53;80.73;96574.41;5024741;28;20120;-67
2023/12/01 08:44:45;;;;;;;0.50;0.50;;;;;;;11.00;77.65;96680.50;5025294;28;20045;-60
2023/12/01 08:47:13;;;;;;;0.50;0.50;;;;;;;10.76;73.57;96570.25;5025528;28;20064;-64
2023/12/01 08:49:40;;;;;;;0.50;0.50;;;;;;;11.42;72.92;96614.31;5025161;28;20128;-60
2023/12/01 08:52:07;;;;;;;0.50;0.50;;;;;;;11.96;71.47;96634.50;5023787;28;20132;-69
2023/12/01 08:54:35;;;;;;;0.50;0.50;;;;;;;12.37;70.97;96643.38;5023643;28;20060;-61
2023/12/01 08:57:02;;;;;;;0.50;0.50;;;;;;;12.33;68.45;96589.00;5023525;28;20132;-59
2023/12/01 08:59:29;;;;;;;0.60;0.60;;;;;;;12.41;66.63;96576.72;5027147;28;20065;-60
2023/12/01 09:01:56;;;;;;;0.50;0.50;;;;;;;13.18;66.85;96638.78;5038401;28;20136;-67
2023/12/01 09:04:22;;;;;;;0.60;0.60;;;;;;;13.02;64.17;96577.22;5032806;28;20475;-61
2023/12/01 09:06:49;;;;;;;0.60;0.60;;;;;;;13.65;63.12;96630.03;5023618;28;20132;-60
2023/12/01 09:09:17;;;;;;;0.50;0.50;;;;;;;13.41;62.34;96608.59;5024743;28;20232;-62
2023/12/01 09:11:44;;;;;;;0.57;0.57;;;;;;;13.78;61.64;96616.47;5024514;28;20163;-65
2023/12/01 09:14:10;;;;;;;0.60;0.60;;;;;;;13.07;61.07;96493.38;5025210;28;20498;-63
2023/12/01 09:16:37;;;;;;;0.60;0.60;;;;;;;13.03;61.45;96547.41;5022788;28;20063;-64
2023/12/01 09:19:04;;;;;;;0.70;0.70;;;;;;;13.73;62.20;96579.91;5024830;28;20137;-65
2023/12/01 09:21:33;;;;;;;0.68;0.68;;;;;;;12.20;62.15;96355.34;5024951;28;20049;-65
2023/12/01 09:24:00;;;;;;;0.60;0.60;;;;;;;13.80;61.79;96591.78;5000235;28;20053;-60
2023/12/01 09:26:28;;;;;;;0.60;0.60;;;;;;;12.36;67.53;96602.13;5004486;28;20060;-60
2023/12/01 09:28:55;;;;;;;0.50;0.50;;;;;;;11.33;68.97;96538.97;5005172;28;20103;-59
2023/12/01 09:31:22;;;;;;;0.50;0.50;;;;;;;11.73;69.99;96561.00;5002547;28;20140;-60
2023/12/01 09:33:50;;;;;;;0.50;0.50;;;;;;;12.30;66.96;96571.13;5018704;28;20116;-60
2023/12/01 09:36:19;;;;;;;0.50;0.50;;;;;;;12.68;66.87;96589.88;5003882;28;20441;-65
2023/12/01 09:38:49;;;;;;;0.50;0.50;;;;;;;12.80;66.14;96555.34;4999531;28;20050;-62
2023/12/01 09:41:17;;;;;;;0.60;0.60;;;;;;;11.42;64.47;96323.13;4996118;28;20611;-66
2023/12/01 09:43:43;;;;;;;0.60;0.60;;;;;;;13.09;64.62;96574.44;5004652;28;20061;-69
2023/12/01 09:46:14;;;;;;;0.60;0.60;;;;;;;13.08;63.84;96570.06;4998603;28;20435;-65
2023/12/01 09:48:42;;;;;;;0.60;0.60;;;;;;;13.54;63.26;96589.50;4990068;28;20508;-71
2023/12/01 09:51:09;;;;;;;0.50;0.50;;;;;;;13.64;63.27;96583.91;5001718;28;20049;-69
2023/12/01 09:53:37;;;;;;;0.60;0.60;;;;;;;13.39;63.15;96533.06;5018129;28;20514;-60
2023/12/01 09:56:05;;;;;;;0.60;0.60;;;;;;;13.36;63.19;96488.56;5015974;28;20057;-67
2023/12/01 09:58:33;;;;;;;0.60;0.60;;;;;;;12.48;62.79;96333.09;5004339;28;20137;-71
2023/12/01 10:01:00;;;;;;;0.60;0.60;;;;;;;14.32;61.67;96571.31;5003060;28;20057;-60
2023/12/01 10:03:28;;;;;;;0.65;0.65;;;;;;;14.25;61.07;96553.88;5018773;28;20053;-65
2023/12/01 10:06:00;;;;;;;0.60;0.60;;;;;;;14.46;61.55;96528.66;5002074;28;20061;-70
2023/12/01 10:08:27;;;;;;;0.60;0.60;;;;;;;14.88;61.08;96561.81;5004198;28;20119;-67
2023/12/01 10:10:54;;;;;;;0.63;0.63;;;;;;;14.29;60.24;96446.00;5003319;28;20053;-70
2023/12/01 10:13:21;;;;;;;0.60;0.60;;;;;;;15.28;59.97;96566.69;4998361;28;20061;-61
2023/12/01 10:15:48;;;;;;;0.60;0.60;;;;;;;15.37;58.99;96555.81;4989763;28;20053;-63
2023/12/01 10:18:23;;;;;;;0.68;0.68;;;;;;;15.25;58.36;96520.06;5003486;28;20061;-57
2023/12/01 10:21:04;;;;;;;0.70;0.70;;;;;;;14.89;58.15;96446.31;5017618;28;20058;-59
2023/12/01 10:23:33;;;;;;;0.60;0.60;;;;;;;15.62;58.48;96544.41;4999897;28;20053;-63
2023/12/01 10:26:04;;;;;;;0.60;0.60;;;;;;;15.71;58.41;96587.41;5004115;28;20050;-66
2023/12/01 10:28:41;;;;;;;0.70;0.70;;;;;;;15.70;57.29;96529.97;5003193;28;20081;-67
2023/12/01 10:31:09;;;;;;;0.60;0.60;;;;;;;15.38;56.83;96501.59;5016728;28;20466;-61
2023/12/01 10:33:37;;;;;;;0.60;0.60;;;;;;;14.91;57.41;96393.66;5001689;28;20050;-71
2023/12/01 10:36:07;;;;;;;0.60;0.60;;;;;;;15.38;56.42;96456.94;5001608;28;20859;-67
2023/12/01 10:38:36;;;;;;;0.70;0.70;;;;;;;14.25;57.00;96294.78;5003187;28;20050;-66
2023/12/01 10:41:04;;;;;;;0.70;0.70;;;;;;;15.58;57.97;96510.97;5017774;28;20058;-60
2023/12/01 10:43:32;;;;;;;0.60;0.60;;;;;;;15.17;58.02;96465.53;5003555;28;20056;-67
2023/12/01 10:46:02;;;;;;;0.60;0.60;;;;;;;15.35;59.42;96496.06;5002837;28;20081;-69
2023/12/01 10:48:31;;;;;;;0.60;0.60;;;;;;;14.81;59.73;96444.78;4998237;28;20046;-60
2023/12/01 10:51:03;;;;;;;0.60;0.60;;;;;;;15.13;59.81;96507.41;5003560;28;20049;-67
2023/12/01 10:53:30;;;;;;;0.70;0.70;;;;;;;14.58;59.63;96405.53;5007461;28;20112;-67
2023/12/01 10:56:02;;;;;;;0.70;0.70;;;;;;;15.44;61.16;96522.31;5003927;28;20070;-63
2023/12/01 10:58:34;;;;;;;0.70;0.70;;;;;;;15.77;59.89;96515.94;5001441;28;20440;-66
2023/12/01 11:01:02;;;;;;;0.70;0.70;;;;;;;15.97;59.07;96511.31;4986466;28;20437;-65
2023/12/01 11:03:30;;;;;;;0.60;0.60;;;;;;;16.23;58.44;96535.69;4986104;28;20445;-67
2023/12/01 11:06:07;;;;;;;0.60;0.60;;;;;;;15.50;56.25;96369.09;4985756;28;20504;-62
2023/12/01 11:08:41;;;;;;;0.60;0.60;;;;;;;16.26;56.82;96501.34;4986951;28;20058;-60
2023/12/01 11:11:13;;;;;;;;;;;;;;;16.17;56.44;96492.66;4986691;28;20464;-61
2023/12/01 11:14:04;;;;;;;0.60;0.60;;;;;;;15.71;58.17;96492.47;4986437;28;19925;-69
2023/12/01 11:16:33;;;;;;;0.60;0.60;;;;;;;15.89;58.87;96498.63;4993562;28;20046;-67
2023/12/01 11:19:00;;;;;;;0.70;0.70;;;;;;;15.74;57.68;96429.41;5006950;28;20049;-66
2023/12/01 11:21:29;;;;;;;0.70;0.70;;;;;;;15.56;57.58;96382.19;5006781;28;20049;-67
2023/12/01 11:24:26;;;;;;;0.55;0.55;;;;;;;16.40;57.80;96487.16;5007285;28;20057;-67
2023/12/01 11:26:54;;;;;;;0.70;0.70;;;;;;;16.72;56.71;96494.31;5007197;28;20046;-68
2023/12/01 11:29:28;;;;;;;0.70;0.70;;;;;;;16.36;56.48;96458.47;5006018;28;20153;-59
2023/12/01 11:31:58;;;;;;;0.70;0.70;;;;;;;16.42;56.51;96484.72;5006310;28;20060;-66
2023/12/01 11:34:26;;;;;;;0.65;0.65;;;;;;;16.44;56.88;96479.53;5007139;28;20124;-66
2023/12/01 11:36:54;;;;;;;1.27;1.27;;;;;;;16.11;56.69;96438.47;5006868;28;20432;-61
2023/12/01 11:39:29;;;;;;;1.30;1.30;;;;;;;15.89;57.01;96414.84;5006816;28;20049;-66
2023/12/01 11:42:00;;;;;;;1.27;1.27;;;;;;;16.08;58.05;96484.03;5006531;28;20492;-67
2023/12/01 11:44:34;;;;;;;1.40;1.40;;;;;;;16.11;56.89;96444.06;5021561;28;20058;-63